Nashville, TN

11:01 AM CDT on March 27, 2015 (GMT -0500)
Campbell Army Air Field | | Change Station
CLOSE
Current Station
Airport
Location: Fort Campbell,
Elevation: 571 ft
Nearby Weather Stations

Elev 571 ft 36.67 °N, 87.50 °W | Updated 3 minutes ago

Overcast
Overcast
44 °F
Feels Like 40 °F
N
8
Wind Variable Wind from North

Today
High -- | Low -- °F
--% Chance of Precip.
Yesterday
High -- | Low -- °F
Precip. -- in
6:40 AM 7:04 PM
First Quarter, 53% visible
Pressure 30.05 in
Visibility 10.0 miles
Clouds Few 7000 ft
Windchill 40 °F
Dew Point 35 °F
Humidity 70%
Rainfall 0.00 in
Snow Depth Not available.
UV 6 out of 12
Pollen 9.50 out of 12
Air Quality Not available.
Flu Activity Not available.
METAR KHOP 271558Z AUTO 01007KT 10SM FEW070 07/02 A3003 RMK AO2 SLP174 T00670016

More Conditions Fewer Conditions

Pressure 30.05 in
Visibility 10.0 miles
Clouds Few 7000 ft
Windchill 40 °F
Dew Point 35 °F
Humidity 70%
Rainfall 0.00 in
Snow Depth Not available.
UV 6 out of 12
Pollen 9.50 out of 12
Air Quality Not available.
Flu Activity Not available.
METAR KHOP 271558Z AUTO 01007KT 10SM FEW070 07/02 A3003 RMK AO2 SLP174 T00670016

More Conditions Fewer Conditions

10-Day Weather Forecast

Almanac

Astronomy

Mar. 27, 2015 Rise Set
Actual Time
Civil Twilight
Nautical Twilight
Astronomical Twilight
Moon
Length of Visible Light
Length of Day
Tomorrow will be .
, % of the Moon is Illuminated

Today's Extremes

State Highs State Lows

Community

WunderPhotos

Upload Photos

1,808,766 photos uploaded!

WunderBlogs® & News

Nearby

Air Quality

  Air Quality AQ Index Pollutant
Not available.

Snow Depth

Station Depth Elevation

Earthquake Activity

City Distance Mag. Time & Date
Minimum magnitude displayed is 2.5.

Coastal Water Temperatures

Place Temperature

Stations

Nearby Weather Stations

Station Location Temp. Windchill Dew Point Humidity Wind Precip. Elev Updated Type
                   
Hard Freeze Warning, Hard Freeze Watch
Statement as of 3:50 AM CDT on March 27, 2015

... Hard freeze warning in effect from 1 am to 10 am CDT
Saturday...
... Hard freeze watch in effect from late Saturday night through
Sunday morning...

The National Weather Service in Nashville has issued a hard
freeze warning... which is in effect from 1 am to 10 am CDT
Saturday. A hard freeze watch has also been issued. This hard
freeze watch is in effect from late Saturday night through Sunday
morning.

* Temperature... 20 degrees to around 27 degrees.

* Impacts... sensitive vegetation will be killed or damaged.


21